Time;durP1;ratioP1;P1;durP2;ratioP2;P2;SDS_P1;SDS_P2;PMS_P1;PMS_P2;Temp;Humidity;BMP_temperature;BMP_pressure;BME280_temperature;BME280_humidity;BME280_pressure;Samples;Min_cycle;Max_cycle;Signal;HPM_P1;HPM_P2
2022/07/07 00:01:13;;;;;;;0.93;0.50;;;25.20;45.10;;;;;;5053608;28;20128;-53
2022/07/07 00:03:38;;;;;;;0.88;0.60;;;25.20;44.50;;;;;;5057816;28;20053;-51
2022/07/07 00:06:04;;;;;;;0.68;0.57;;;25.20;44.60;;;;;;5057629;28;20028;-49
2022/07/07 00:08:30;;;;;;;0.80;0.50;;;25.20;44.60;;;;;;5041517;28;20108;-51
2022/07/07 00:10:56;;;;;;;0.43;0.35;;;25.20;44.70;;;;;;5037852;28;20125;-50
2022/07/07 00:13:22;;;;;;;0.65;0.60;;;25.20;44.70;;;;;;5039440;28;20033;-50
2022/07/07 00:15:48;;;;;;;0.60;0.40;;;25.20;44.80;;;;;;5038150;28;20052;-51
2022/07/07 00:18:15;;;;;;;0.60;0.50;;;25.20;44.80;;;;;;5038241;28;20048;-47
2022/07/07 00:20:41;;;;;;;1.05;0.47;;;25.20;44.80;;;;;;5020411;28;20441;-54
2022/07/07 00:23:07;;;;;;;0.63;0.43;;;25.20;44.90;;;;;;5037716;28;20037;-51
2022/07/07 00:25:33;;;;;;;0.70;0.60;;;25.10;44.80;;;;;;5061083;28;20364;-54
2022/07/07 00:27:59;;;;;;;0.70;0.50;;;25.20;44.90;;;;;;5043140;28;20049;-53
2022/07/07 00:30:25;;;;;;;0.50;0.50;;;25.10;44.90;;;;;;5038799;28;20082;-51
2022/07/07 00:32:51;;;;;;;0.70;0.60;;;25.20;45.00;;;;;;5077456;28;20162;-55
2022/07/07 00:35:16;;;;;;;0.55;0.55;;;25.10;45.00;;;;;;5063445;28;20108;-46
2022/07/07 00:37:42;;;;;;;0.60;0.60;;;25.10;45.00;;;;;;5055532;28;20043;-48
2022/07/07 00:40:09;;;;;;;0.73;0.70;;;25.20;45.10;;;;;;5057232;28;20041;-53
2022/07/07 00:42:35;;;;;;;0.88;0.50;;;25.10;45.00;;;;;;5055941;28;20364;-53
2022/07/07 00:45:01;;;;;;;0.90;0.63;;;25.10;45.10;;;;;;5039199;28;20441;-49
2022/07/07 00:47:28;;;;;;;1.08;0.68;;;25.10;45.10;;;;;;5037172;28;20021;-51
2022/07/07 00:49:54;;;;;;;0.68;0.60;;;25.10;45.20;;;;;;5049208;28;20041;-50
2022/07/07 00:52:20;;;;;;;0.95;0.60;;;25.10;45.20;;;;;;5069658;28;20037;-52
2022/07/07 00:54:56;;;;;;;0.73;0.60;;;25.10;45.20;;;;;;5074845;28;20410;-49
2022/07/07 00:57:22;;;;;;;0.85;0.70;;;25.10;45.30;;;;;;5050012;28;20330;-50
2022/07/07 00:59:49;;;;;;;0.65;0.60;;;25.10;45.30;;;;;;5055908;28;20119;-47
2022/07/07 01:02:15;;;;;;;0.93;0.55;;;25.10;45.30;;;;;;5076317;28;20047;-51
2022/07/07 01:04:42;;;;;;;1.15;0.70;;;25.10;45.40;;;;;;5076128;28;20062;-53
2022/07/07 01:07:08;;;;;;;1.30;0.60;;;25.10;45.40;;;;;;5053863;28;20025;-52
2022/07/07 01:09:35;;;;;;;0.70;0.50;;;25.10;45.50;;;;;;5056542;28;20032;-50
2022/07/07 01:12:01;;;;;;;0.63;0.60;;;25.10;45.60;;;;;;5054487;28;20036;-50
2022/07/07 01:14:29;;;;;;;1.83;0.70;;;25.10;45.60;;;;;;5076885;28;20064;-48
2022/07/07 01:16:55;;;;;;;1.10;0.68;;;25.10;45.70;;;;;;5062533;28;20036;-52
2022/07/07 01:19:22;;;;;;;1.13;0.60;;;25.10;45.70;;;;;;5056407;28;20105;-50
2022/07/07 01:22:00;;;;;;;0.90;0.73;;;25.10;46.40;;;;;;5056768;28;20052;-51
2022/07/07 01:24:28;;;;;;;0.77;0.60;;;25.10;45.90;;;;;;5056681;28;20028;-51
2022/07/07 01:27:17;;;;;;;0.70;0.70;;;25.10;45.90;;;;;;5049289;28;20033;-48
2022/07/07 01:29:45;;;;;;;0.75;0.50;;;25.10;46.00;;;;;;5044087;28;20029;-51
2022/07/07 01:32:11;;;;;;;0.88;0.63;;;25.10;46.00;;;;;;5053142;28;20369;-48
2022/07/07 01:34:39;;;;;;;0.90;0.63;;;25.10;46.10;;;;;;5047949;28;20037;-49
2022/07/07 01:37:05;;;;;;;2.08;0.77;;;25.10;46.20;;;;;;5042642;28;20349;-49
2022/07/07 01:39:32;;;;;;;1.20;0.80;;;25.10;46.30;;;;;;5043356;28;20037;-52
2022/07/07 01:41:57;;;;;;;1.75;0.55;;;25.10;46.40;;;;;;5054701;28;20051;-50
2022/07/07 01:44:23;;;;;;;1.35;0.70;;;25.10;46.40;;;;;;5059152;28;20024;-52
2022/07/07 01:46:49;;;;;;;0.63;0.52;;;25.10;46.50;;;;;;5067481;28;20083;-51
2022/07/07 01:49:15;;;;;;;1.20;0.70;;;25.10;46.50;;;;;;5055768;28;20036;-50
2022/07/07 01:51:41;;;;;;;1.88;0.90;;;25.10;46.50;;;;;;5054329;28;20048;-50
2022/07/07 01:54:07;;;;;;;0.65;0.60;;;25.10;46.60;;;;;;5048140;28;20087;-47
2022/07/07 01:56:32;;;;;;;0.95;0.70;;;25.10;46.70;;;;;;5033887;28;20025;-52
2022/07/07 01:58:58;;;;;;;1.60;0.60;;;25.10;46.70;;;;;;5043511;28;20043;-52
2022/07/07 02:01:24;;;;;;;1.58;0.80;;;25.10;46.70;;;;;;5055570;28;20360;-53
2022/07/07 02:03:50;;;;;;;0.93;0.65;;;25.10;46.80;;;;;;5055465;28;20043;-52
2022/07/07 02:06:15;;;;;;;1.25;0.50;;;25.10;46.80;;;;;;5053622;28;20067;-53
2022/07/07 02:08:41;;;;;;;1.42;0.60;;;25.10;46.80;;;;;;5054555;28;20043;-51
2022/07/07 02:11:13;;;;;;;0.55;0.55;;;25.10;46.80;;;;;;5055814;28;20021;-49
2022/07/07 02:13:40;;;;;;;0.70;0.50;;;25.10;46.90;;;;;;5052672;28;20036;-51
2022/07/07 02:16:06;;;;;;;0.80;0.60;;;25.10;46.90;;;;;;5055244;28;20459;-51
2022/07/07 02:18:37;;;;;;;2.97;0.70;;;25.10;46.90;;;;;;5034494;28;20041;-51
2022/07/07 02:21:05;;;;;;;0.60;0.60;;;25.10;46.90;;;;;;5035385;28;20033;-49
2022/07/07 02:23:32;;;;;;;0.73;0.60;;;25.10;46.90;;;;;;5039803;28;20059;-51
2022/07/07 02:25:57;;;;;;;1.63;0.70;;;25.10;47.00;;;;;;5052411;28;20032;-52
2022/07/07 02:28:24;;;;;;;1.85;0.95;;;25.10;47.00;;;;;;5054350;28;20356;-52
2022/07/07 02:30:51;;;;;;;0.88;0.52;;;25.10;47.00;;;;;;5047802;28;20111;-50
2022/07/07 02:33:16;;;;;;;0.80;0.50;;;25.00;46.90;;;;;;5054929;28;20115;-52
2022/07/07 02:35:42;;;;;;;1.73;0.60;;;25.10;47.00;;;;;;5055159;28;20113;-50
2022/07/07 02:38:08;;;;;;;0.32;0.32;;;25.10;47.00;;;;;;5052419;28;20108;-49
2022/07/07 02:40:34;;;;;;;0.47;0.38;;;25.10;47.00;;;;;;5049097;28;20496;-51
2022/07/07 02:42:59;;;;;;;0.90;0.57;;;25.10;47.00;;;;;;5034983;28;20037;-53
2022/07/07 02:45:25;;;;;;;0.40;0.40;;;25.10;47.20;;;;;;5035989;28;20025;-52
2022/07/07 02:47:51;;;;;;;0.52;0.47;;;25.00;46.90;;;;;;5044680;28;20025;-50
2022/07/07 02:50:17;;;;;;;0.82;0.40;;;25.00;46.90;;;;;;5054916;28;20025;-52
2022/07/07 02:52:43;;;;;;;0.52;0.45;;;25.00;46.90;;;;;;5073395;28;20080;-52
2022/07/07 02:55:09;;;;;;;0.40;0.30;;;25.10;47.00;;;;;;5074942;28;20043;-52
2022/07/07 02:57:36;;;;;;;0.50;0.30;;;25.00;46.90;;;;;;5053754;28;20356;-49
2022/07/07 03:00:04;;;;;;;0.60;0.30;;;25.00;46.90;;;;;;5034725;28;20038;-48
2022/07/07 03:02:30;;;;;;;0.52;0.35;;;25.00;46.90;;;;;;5057447;28;20102;-53
2022/07/07 03:04:56;;;;;;;0.80;0.40;;;25.10;47.00;;;;;;5060463;28;20029;-55
2022/07/07 03:07:21;;;;;;;0.73;0.52;;;25.00;46.90;;;;;;5044165;28;20739;-49
2022/07/07 03:09:48;;;;;;;0.50;0.38;;;25.00;46.90;;;;;;5079044;28;20074;-50
2022/07/07 03:12:13;;;;;;;0.50;0.30;;;25.00;47.00;;;;;;5068032;28;20032;-53
2022/07/07 03:14:39;;;;;;;0.40;0.30;;;25.00;47.00;;;;;;5070105;28;20035;-50
2022/07/07 03:17:05;;;;;;;0.30;0.30;;;25.00;47.00;;;;;;5072336;28;20040;-50
2022/07/07 03:19:31;;;;;;;0.38;0.38;;;25.00;47.00;;;;;;5064175;28;20442;-49
2022/07/07 03:21:56;;;;;;;0.47;0.35;;;25.00;47.00;;;;;;5078686;28;20440;-54
2022/07/07 03:24:22;;;;;;;0.52;0.30;;;25.00;47.00;;;;;;5078970;28;20351;-49
2022/07/07 03:26:48;;;;;;;0.30;0.30;;;25.00;47.10;;;;;;5063339;28;20033;-51
2022/07/07 03:29:16;;;;;;;0.47;0.30;;;25.00;47.10;;;;;;5038148;28;20388;-48
2022/07/07 03:31:42;;;;;;;0.47;0.30;;;25.00;47.10;;;;;;5038596;28;20033;-49
2022/07/07 03:34:08;;;;;;;0.85;0.40;;;25.00;47.10;;;;;;5038701;28;20040;-50
2022/07/07 03:36:34;;;;;;;1.05;0.40;;;25.00;47.10;;;;;;5037948;28;20103;-49
2022/07/07 03:38:59;;;;;;;0.80;0.43;;;25.00;47.20;;;;;;5038768;28;20045;-53
2022/07/07 03:41:25;;;;;;;0.50;0.40;;;25.00;47.20;;;;;;5053070;28;20086;-49
2022/07/07 03:43:51;;;;;;;0.47;0.30;;;25.00;47.20;;;;;;5056801;28;20028;-50
2022/07/07 03:46:17;;;;;;;0.35;0.30;;;25.00;47.20;;;;;;5061738;28;20453;-54
2022/07/07 03:48:42;;;;;;;0.50;0.30;;;25.00;47.20;;;;;;5057577;28;20375;-52
2022/07/07 03:51:08;;;;;;;0.40;0.35;;;25.00;47.20;;;;;;5058625;28;20060;-49
2022/07/07 03:53:34;;;;;;;0.30;0.30;;;25.00;47.30;;;;;;5078246;28;20351;-50
2022/07/07 03:56:00;;;;;;;1.77;0.40;;;25.00;47.30;;;;;;5067844;28;20022;-50
2022/07/07 03:58:26;;;;;;;0.52;0.45;;;25.00;47.30;;;;;;5042461;28;20041;-52
2022/07/07 04:00:52;;;;;;;0.55;0.30;;;24.90;47.30;;;;;;5038085;28;20041;-49
2022/07/07 04:03:18;;;;;;;0.30;0.30;;;25.00;47.40;;;;;;5041928;28;20448;-49
2022/07/07 04:05:43;;;;;;;0.30;0.30;;;25.00;47.40;;;;;;5057930;28;20033;-48
2022/07/07 04:08:09;;;;;;;0.22;0.22;;;25.00;47.40;;;;;;5057390;28;20033;-50
2022/07/07 04:10:35;;;;;;;0.55;0.30;;;24.90;47.40;;;;;;5057571;28;20329;-49
2022/07/07 04:13:01;;;;;;;1.58;0.73;;;24.90;47.40;;;;;;5045715;28;20446;-45
2022/07/07 04:15:26;;;;;;;0.20;0.20;;;24.90;47.40;;;;;;5037754;28;20041;-48
2022/07/07 04:17:52;;;;;;;0.47;0.28;;;24.90;48.10;;;;;;5037697;28;20421;-50
2022/07/07 04:20:18;;;;;;;0.65;0.40;;;24.90;47.50;;;;;;5036843;28;20034;-44
2022/07/07 04:22:44;;;;;;;1.17;0.30;;;24.90;47.50;;;;;;5056085;28;20120;-49
2022/07/07 04:25:10;;;;;;;0.22;0.20;;;25.00;47.60;;;;;;5063974;28;20120;-49
2022/07/07 04:27:36;;;;;;;0.30;0.30;;;25.00;47.60;;;;;;5053821;28;20065;-49
2022/07/07 04:30:02;;;;;;;0.70;0.30;;;24.90;47.60;;;;;;5057448;28;20091;-51
2022/07/07 04:32:27;;;;;;;0.85;0.30;;;24.90;47.60;;;;;;5057964;28;20063;-50
2022/07/07 04:34:53;;;;;;;0.30;0.28;;;24.90;47.70;;;;;;5057409;28;20375;-52
2022/07/07 04:37:19;;;;;;;0.63;0.30;;;24.90;47.70;;;;;;5054453;28;20032;-50
2022/07/07 04:39:45;;;;;;;0.80;0.38;;;24.90;47.70;;;;;;5056166;28;20043;-51
2022/07/07 04:42:10;;;;;;;0.65;0.30;;;24.90;47.70;;;;;;5058996;28;20391;-50
2022/07/07 04:44:36;;;;;;;0.15;0.15;;;24.90;47.80;;;;;;5057052;28;20566;-47
2022/07/07 04:47:02;;;;;;;1.65;0.30;;;24.90;47.70;;;;;;5067171;28;20044;-53
2022/07/07 04:49:28;;;;;;;0.30;0.20;;;24.90;47.70;;;;;;5057489;28;20104;-49
2022/07/07 04:51:54;;;;;;;0.32;0.20;;;24.90;47.70;;;;;;5039482;28;20124;-49
2022/07/07 04:54:20;;;;;;;0.85;0.20;;;24.90;47.70;;;;;;5043516;28;20046;-48
2022/07/07 04:56:45;;;;;;;0.43;0.20;;;24.90;47.70;;;;;;5036843;28;20141;-55
2022/07/07 04:59:11;;;;;;;1.10;0.30;;;24.90;47.70;;;;;;5055141;28;20037;-49
2022/07/07 05:01:37;;;;;;;0.30;0.20;;;24.90;47.70;;;;;;5058910;28;20031;-50
2022/07/07 05:04:03;;;;;;;0.25;0.25;;;24.90;47.70;;;;;;5076500;28;20032;-52
2022/07/07 05:06:29;;;;;;;0.63;0.35;;;24.90;47.70;;;;;;5066541;28;20040;-52
2022/07/07 05:08:55;;;;;;;0.70;0.30;;;24.90;47.70;;;;;;5053791;28;20033;-48
2022/07/07 05:11:20;;;;;;;0.25;0.20;;;24.90;47.70;;;;;;5038984;28;20349;-49
2022/07/07 05:13:46;;;;;;;0.40;0.30;;;24.90;47.70;;;;;;5036112;28;20391;-52
2022/07/07 05:16:12;;;;;;;0.50;0.28;;;24.90;48.30;;;;;;5036626;28;20033;-48
2022/07/07 05:18:38;;;;;;;0.10;0.10;;;24.90;47.70;;;;;;5048290;28;20065;-47
2022/07/07 05:21:04;;;;;;;0.25;0.10;;;24.90;47.70;;;;;;5050288;28;20052;-50
2022/07/07 05:23:30;;;;;;;0.73;0.30;;;24.90;47.70;;;;;;5053686;28;20080;-45
2022/07/07 05:25:56;;;;;;;0.22;0.20;;;24.90;47.70;;;;;;5036179;28;20097;-47
2022/07/07 05:28:21;;;;;;;0.40;0.15;;;24.90;47.80;;;;;;5043471;28;20199;-47
2022/07/07 05:30:47;;;;;;;0.30;0.30;;;24.90;47.70;;;;;;5056430;28;20050;-49
2022/07/07 05:33:13;;;;;;;0.60;0.20;;;24.90;47.80;;;;;;5073218;28;20033;-49
2022/07/07 05:35:39;;;;;;;1.02;0.30;;;24.90;47.80;;;;;;5075736;28;20028;-51
2022/07/07 05:38:05;;;;;;;0.52;0.30;;;25.00;47.80;;;;;;5064057;28;20030;-52
2022/07/07 05:40:31;;;;;;;0.50;0.30;;;24.90;47.70;;;;;;5059759;28;20097;-49
2022/07/07 05:42:57;;;;;;;0.68;0.30;;;24.90;47.70;;;;;;5067418;28;20446;-48
2022/07/07 05:45:23;;;;;;;0.52;0.30;;;24.90;47.70;;;;;;5042841;28;20033;-49
2022/07/07 05:47:48;;;;;;;0.47;0.30;;;24.90;47.60;;;;;;5056012;28;20037;-48
2022/07/07 05:50:14;;;;;;;0.32;0.30;;;25.00;48.30;;;;;;5047257;28;20036;-48
2022/07/07 05:52:40;;;;;;;0.73;0.30;;;25.00;47.60;;;;;;5053834;28;20043;-51
2022/07/07 05:55:07;;;;;;;0.40;0.20;;;24.90;47.60;;;;;;5037198;28;20116;-49
2022/07/07 05:57:33;;;;;;;0.88;0.40;;;24.90;47.60;;;;;;5035827;28;20120;-54
2022/07/07 05:59:59;;;;;;;2.00;0.60;;;24.90;47.60;;;;;;5047582;28;20101;-48
2022/07/07 06:02:25;;;;;;;0.63;0.30;;;24.90;47.60;;;;;;5063211;28;20036;-52
2022/07/07 06:04:50;;;;;;;0.98;0.40;;;24.90;47.60;;;;;;5044157;28;20344;-48
2022/07/07 06:07:17;;;;;;;1.45;0.38;;;24.90;47.60;;;;;;5055065;28;20025;-50
2022/07/07 06:09:43;;;;;;;1.40;0.52;;;24.90;47.60;;;;;;5055339;28;20037;-55
2022/07/07 06:12:09;;;;;;;1.17;0.50;;;25.00;47.60;;;;;;5043856;28;20111;-52
2022/07/07 06:14:35;;;;;;;0.75;0.30;;;24.90;47.50;;;;;;5049398;28;20044;-50
2022/07/07 06:17:01;;;;;;;0.93;0.40;;;24.90;47.60;;;;;;5035352;28;20365;-47
2022/07/07 06:19:27;;;;;;;2.65;0.77;;;25.00;47.60;;;;;;5037711;28;20025;-51
2022/07/07 06:21:53;;;;;;;0.73;0.50;;;24.90;47.60;;;;;;5052264;28;20433;-50
2022/07/07 06:24:19;;;;;;;2.05;0.60;;;24.90;47.60;;;;;;5061858;28;20052;-49
2022/07/07 06:26:45;;;;;;;1.90;0.70;;;24.90;47.50;;;;;;5037139;28;20120;-53
2022/07/07 06:29:10;;;;;;;1.13;0.70;;;24.90;47.50;;;;;;5053966;28;20420;-54
2022/07/07 06:31:36;;;;;;;1.90;0.77;;;24.90;47.50;;;;;;5053839;28;20029;-52
2022/07/07 06:34:02;;;;;;;1.23;0.55;;;24.90;47.50;;;;;;5054150;28;20044;-51
2022/07/07 06:36:28;;;;;;;0.90;0.40;;;24.90;47.40;;;;;;5050011;28;20063;-48
2022/07/07 06:38:54;;;;;;;1.48;0.65;;;24.90;47.40;;;;;;5067663;28;20130;-52
2022/07/07 06:41:32;;;;;;;2.30;0.60;;;24.90;47.30;;;;;;5054903;28;20028;-48
2022/07/07 06:43:58;;;;;;;1.55;0.60;;;24.90;47.20;;;;;;5054832;28;20047;-51
2022/07/07 06:46:23;;;;;;;2.20;0.55;;;24.90;47.20;;;;;;5054765;28;20025;-49
2022/07/07 06:48:49;;;;;;;1.95;0.60;;;25.00;47.20;;;;;;5055807;28;20033;-53
2022/07/07 06:51:15;;;;;;;1.45;0.60;;;25.00;47.20;;;;;;5030136;28;20040;-51
2022/07/07 06:53:42;;;;;;;1.02;0.43;;;24.90;47.20;;;;;;5041216;28;20059;-54
2022/07/07 06:56:08;;;;;;;1.00;0.40;;;24.90;47.10;;;;;;5075029;28;20040;-48
2022/07/07 06:58:33;;;;;;;0.95;0.40;;;25.00;47.20;;;;;;5065783;28;20020;-52
2022/07/07 07:00:59;;;;;;;1.00;0.38;;;25.00;47.20;;;;;;5061402;28;20074;-53
2022/07/07 07:03:25;;;;;;;1.20;0.40;;;24.90;47.10;;;;;;5048881;28;20033;-51
2022/07/07 07:05:51;;;;;;;1.05;0.47;;;25.00;47.10;;;;;;5035261;28;20415;-50
2022/07/07 07:08:16;;;;;;;0.98;0.52;;;25.00;47.10;;;;;;5052076;28;20102;-50
2022/07/07 07:10:42;;;;;;;1.13;0.32;;;25.00;47.00;;;;;;5049147;28;20065;-48
2022/07/07 07:13:08;;;;;;;1.60;0.50;;;25.00;47.00;;;;;;5053627;28;20082;-47
2022/07/07 07:15:34;;;;;;;1.40;0.57;;;25.00;47.00;;;;;;5052209;28;20024;-53
2022/07/07 07:17:59;;;;;;;0.93;0.40;;;25.00;47.00;;;;;;5053609;28;20025;-52
2022/07/07 07:20:25;;;;;;;2.33;0.45;;;25.00;47.00;;;;;;5051890;28;20065;-53
2022/07/07 07:22:51;;;;;;;1.08;0.50;;;25.00;47.60;;;;;;5053293;28;20032;-51
2022/07/07 07:25:18;;;;;;;1.55;0.50;;;25.00;47.00;;;;;;5051118;28;20033;-52
2022/07/07 07:27:44;;;;;;;0.77;0.32;;;25.00;47.00;;;;;;5051582;28;20025;-54
2022/07/07 07:30:11;;;;;;;1.05;0.43;;;25.00;47.00;;;;;;5053340;28;20586;-52
2022/07/07 07:32:37;;;;;;;1.17;0.50;;;25.00;46.90;;;;;;5051657;28;20355;-54
2022/07/07 07:35:03;;;;;;;2.10;0.50;;;25.00;46.90;;;;;;5054508;28;20036;-52
2022/07/07 07:37:28;;;;;;;0.47;0.20;;;25.00;46.90;;;;;;5071399;28;20047;-51
2022/07/07 07:39:54;;;;;;;1.48;0.40;;;25.00;47.00;;;;;;5052885;28;20072;-52
2022/07/07 07:42:20;;;;;;;0.77;0.45;;;25.00;47.00;;;;;;5036448;28;20034;-52
2022/07/07 07:47:30;;;;;;;0.80;0.50;;;25.00;47.00;;;;;;5036006;28;20034;-52
2022/07/07 07:49:56;;;;;;;0.43;0.30;;;25.00;47.00;;;;;;5074168;28;20116;-52
2022/07/07 07:52:22;;;;;;;0.50;0.40;;;25.00;47.00;;;;;;5073941;28;20055;-48
2022/07/07 07:54:47;;;;;;;0.95;0.47;;;25.00;47.10;;;;;;5047552;28;20053;-52
2022/07/07 07:57:13;;;;;;;0.45;0.28;;;25.00;47.00;;;;;;5037936;28;20528;-53
2022/07/07 07:59:39;;;;;;;0.55;0.40;;;25.00;47.10;;;;;;5043618;28;20082;-52
2022/07/07 08:02:05;;;;;;;0.63;0.40;;;25.00;47.00;;;;;;5078112;28;20462;-52
2022/07/07 08:04:30;;;;;;;0.82;0.40;;;25.00;47.10;;;;;;5077825;28;20029;-51
2022/07/07 08:06:57;;;;;;;1.73;0.45;;;25.00;47.00;;;;;;5075710;28;20032;-49
2022/07/07 08:09:24;;;;;;;0.85;0.45;;;25.00;47.00;;;;;;5077636;28;20116;-52
2022/07/07 08:11:49;;;;;;;0.95;0.50;;;25.00;47.00;;;;;;5019575;28;20437;-51
2022/07/07 08:14:15;;;;;;;0.70;0.40;;;25.00;47.00;;;;;;5059116;28;20047;-47
2022/07/07 08:16:41;;;;;;;0.55;0.38;;;25.00;47.10;;;;;;5040114;28;20044;-50
2022/07/07 08:19:07;;;;;;;1.00;0.32;;;25.10;47.10;;;;;;5057482;28;20036;-52
2022/07/07 08:21:33;;;;;;;0.77;0.22;;;25.10;47.10;;;;;;5057684;28;20056;-51
2022/07/07 08:23:58;;;;;;;1.33;0.52;;;25.10;47.20;;;;;;5057437;28;20033;-48
2022/07/07 08:26:25;;;;;;;0.77;0.30;;;25.10;47.20;;;;;;5043473;28;20026;-50
2022/07/07 08:28:51;;;;;;;0.68;0.22;;;25.00;47.20;;;;;;5037784;28;20045;-54
2022/07/07 08:31:17;;;;;;;1.95;0.60;;;25.10;47.30;;;;;;5037023;28;20039;-53
2022/07/07 08:33:43;;;;;;;0.60;0.28;;;25.10;47.30;;;;;;5041984;28;20180;-51
2022/07/07 08:36:09;;;;;;;0.50;0.30;;;25.10;47.30;;;;;;5037503;28;20116;-51
2022/07/07 08:38:34;;;;;;;1.50;0.35;;;25.10;47.30;;;;;;5050146;28;20032;-52
2022/07/07 08:41:00;;;;;;;0.75;0.40;;;25.10;47.40;;;;;;5056448;28;20032;-53
2022/07/07 08:43:26;;;;;;;1.58;0.30;;;25.10;47.40;;;;;;5037661;28;20180;-52
2022/07/07 08:45:53;;;;;;;0.73;0.30;;;25.10;47.50;;;;;;5053280;28;20032;-52
2022/07/07 08:48:20;;;;;;;1.48;0.50;;;25.10;47.50;;;;;;5035917;28;20040;-54
2022/07/07 08:50:46;;;;;;;0.68;0.40;;;25.10;47.60;;;;;;5069197;28;20108;-49
2022/07/07 08:53:13;;;;;;;1.40;0.40;;;25.10;47.60;;;;;;5076680;28;20442;-48
2022/07/07 08:55:42;;;;;;;0.63;0.40;;;25.10;47.60;;;;;;5076401;28;20448;-48
2022/07/07 08:58:09;;;;;;;1.05;0.30;;;25.10;47.70;;;;;;5076702;28;20047;-54
2022/07/07 09:00:35;;;;;;;0.70;0.30;;;25.10;47.70;;;;;;5060640;28;20025;-49
2022/07/07 09:03:05;;;;;;;0.75;0.40;;;25.10;47.70;;;;;;5069333;28;20128;-49
2022/07/07 09:05:37;;;;;;;1.05;0.32;;;25.10;47.70;;;;;;5043217;28;20523;-51
2022/07/07 09:08:17;;;;;;;0.77;0.35;;;25.10;47.70;;;;;;5058086;28;20033;-52
2022/07/07 09:10:44;;;;;;;0.70;0.30;;;25.10;47.60;;;;;;5059899;28;20060;-51
2022/07/07 09:13:22;;;;;;;0.80;0.20;;;25.10;47.60;;;;;;5076145;28;20024;-52
2022/07/07 09:15:50;;;;;;;0.57;0.40;;;25.10;47.60;;;;;;5051078;28;20033;-55
2022/07/07 09:18:36;;;;;;;0.47;0.20;;;25.10;47.60;;;;;;5036125;28;20096;-49
2022/07/07 09:21:22;;;;;;;0.95;0.25;;;25.10;47.60;;;;;;5055673;28;20455;-51
2022/07/07 09:23:56;;;;;;;0.65;0.20;;;25.10;47.50;;;;;;5055000;28;20070;-47
2022/07/07 09:26:44;;;;;;;0.63;0.25;;;25.10;47.50;;;;;;5060476;28;20028;-50
2022/07/07 09:29:15;;;;;;;0.75;0.30;;;25.10;47.50;;;;;;5054039;28;20037;-52
2022/07/07 09:31:58;;;;;;;0.60;0.20;;;25.10;47.50;;;;;;5050390;28;20120;-54
2022/07/07 09:34:34;;;;;;;0.60;0.30;;;25.10;47.50;;;;;;5055628;28;20336;-55
2022/07/07 09:39:58;;;;;;;0.88;0.30;;;25.10;47.40;;;;;;5052675;28;20344;-54
2022/07/07 09:42:29;;;;;;;0.90;0.30;;;25.10;47.40;;;;;;5065986;28;20033;-54
2022/07/07 09:45:10;;;;;;;0.57;0.20;;;25.10;47.40;;;;;;5049930;28;20033;-52
2022/07/07 09:47:37;;;;;;;0.40;0.20;;;25.10;47.40;;;;;;5049364;28;20041;-54
2022/07/07 09:50:09;;;;;;;0.85;0.30;;;25.10;47.40;;;;;;5041459;28;20024;-54
2022/07/07 09:52:36;;;;;;;0.38;0.20;;;25.10;47.30;;;;;;5052535;28;20407;-51
2022/07/07 09:55:04;;;;;;;0.95;0.28;;;25.10;47.30;;;;;;5049705;28;21586;-49
2022/07/07 09:57:30;;;;;;;0.80;0.32;;;25.10;47.30;;;;;;5024046;28;20045;-48
2022/07/07 09:59:56;;;;;;;0.28;0.17;;;25.10;47.20;;;;;;5058144;28;20123;-51
2022/07/07 10:02:25;;;;;;;0.50;0.20;;;25.20;47.30;;;;;;5060585;28;20450;-55
2022/07/07 10:04:54;;;;;;;0.20;0.13;;;25.20;47.20;;;;;;5034698;28;20352;-55
2022/07/07 10:07:24;;;;;;;0.50;0.22;;;25.20;47.10;;;;;;5063848;28;20032;-53
2022/07/07 10:10:00;;;;;;;0.68;0.30;;;25.20;47.10;;;;;;5039486;28;20033;-52
2022/07/07 10:12:28;;;;;;;0.17;0.10;;;25.20;47.00;;;;;;5034293;28;20049;-51
2022/07/07 10:15:00;;;;;;;0.60;0.20;;;25.20;47.00;;;;;;5034978;28;20040;-54
2022/07/07 10:17:27;;;;;;;0.55;0.15;;;25.20;47.00;;;;;;5033527;28;20069;-53
2022/07/07 10:19:54;;;;;;;0.75;0.30;;;25.20;47.00;;;;;;5064734;28;20037;-49
2022/07/07 10:22:29;;;;;;;0.28;0.20;;;25.20;47.00;;;;;;5074445;28;20037;-50
2022/07/07 10:25:00;;;;;;;0.47;0.20;;;25.20;47.00;;;;;;5023475;28;20345;-47
2022/07/07 10:27:27;;;;;;;0.22;0.13;;;25.20;47.00;;;;;;5034579;28;20025;-53
2022/07/07 10:29:55;;;;;;;0.30;0.10;;;25.20;47.00;;;;;;5045566;28;20036;-48
2022/07/07 10:32:39;;;;;;;0.28;0.20;;;25.20;47.00;;;;;;5074527;28;20103;-52
2022/07/07 10:35:15;;;;;;;0.20;0.10;;;25.20;47.00;;;;;;5049609;28;20024;-53
2022/07/07 10:37:46;;;;;;;0.50;0.20;;;25.20;47.00;;;;;;5039190;28;20461;-50
2022/07/07 10:40:19;;;;;;;0.45;0.20;;;25.20;47.00;;;;;;5033576;28;20452;-54
2022/07/07 10:43:24;;;;;;;0.60;0.20;;;25.20;46.90;;;;;;5034174;28;20181;-45
2022/07/07 10:45:54;;;;;;;0.43;0.20;;;25.20;46.90;;;;;;5029629;28;20045;-51
2022/07/07 10:48:49;;;;;;;1.20;0.30;;;25.20;46.90;;;;;;5032890;28;20037;-51
2022/07/07 10:51:19;;;;;;;0.28;0.20;;;25.20;46.90;;;;;;5033672;28;20037;-49
2022/07/07 10:54:03;;;;;;;0.47;0.30;;;25.20;46.90;;;;;;5045978;28;20364;-54
2022/07/07 10:56:51;;;;;;;0.98;0.30;;;25.20;46.90;;;;;;5061977;28;20037;-53
2022/07/07 10:59:17;;;;;;;0.40;0.28;;;25.20;46.90;;;;;;5049052;28;20549;-51
2022/07/07 11:02:01;;;;;;;0.38;0.22;;;25.20;46.90;;;;;;5040190;28;20029;-50
2022/07/07 11:04:43;;;;;;;1.80;0.35;;;25.20;46.90;;;;;;5022422;28;20372;-52
2022/07/07 11:07:28;;;;;;;0.38;0.25;;;25.20;47.50;;;;;;5045203;28;20025;-53
2022/07/07 11:10:10;;;;;;;0.68;0.20;;;25.20;47.50;;;;;;5044842;28;20033;-52
2022/07/07 11:12:43;;;;;;;1.65;0.32;;;25.20;46.90;;;;;;5037074;28;20033;-51
2022/07/07 11:15:17;;;;;;;1.00;0.30;;;25.20;46.90;;;;;;5020130;28;20036;-51
2022/07/07 11:17:45;;;;;;;1.15;0.30;;;25.30;47.60;;;;;;5052851;28;20396;-55
2022/07/07 11:20:21;;;;;;;0.32;0.10;;;25.20;46.90;;;;;;5044058;28;20443;-52
2022/07/07 11:22:50;;;;;;;0.77;0.38;;;25.20;46.90;;;;;;5042622;28;20037;-52
2022/07/07 11:25:18;;;;;;;0.20;0.20;;;25.30;47.00;;;;;;5034266;28;20037;-54
2022/07/07 11:27:49;;;;;;;0.80;0.20;;;25.30;47.00;;;;;;5041805;28;20376;-53
2022/07/07 11:30:16;;;;;;;0.57;0.32;;;25.30;47.10;;;;;;5036791;28;20034;-51
2022/07/07 11:32:43;;;;;;;1.08;0.20;;;25.30;47.10;;;;;;5046985;28;20033;-51
2022/07/07 11:35:13;;;;;;;1.38;0.32;;;25.30;47.20;;;;;;5037772;28;20438;-54
2022/07/07 11:37:42;;;;;;;0.70;0.30;;;25.30;47.30;;;;;;5038897;28;20104;-49
2022/07/07 11:40:14;;;;;;;0.70;0.30;;;25.30;47.40;;;;;;5040733;28;20452;-50
2022/07/07 11:42:41;;;;;;;1.00;0.30;;;25.40;47.50;;;;;;5038485;28;20388;-51
2022/07/07 11:45:28;;;;;;;2.10;0.38;;;25.40;47.40;;;;;;5037866;28;20037;-53
2022/07/07 11:48:03;;;;;;;1.73;0.35;;;25.40;47.40;;;;;;5044996;28;20134;-47
2022/07/07 11:50:31;;;;;;;1.75;0.45;;;25.40;47.40;;;;;;5051110;28;20074;-46
2022/07/07 11:53:01;;;;;;;1.98;0.40;;;25.40;47.40;;;;;;5051016;28;20119;-46
2022/07/07 11:55:28;;;;;;;1.80;0.45;;;25.40;47.30;;;;;;5040328;28;20048;-45
2022/07/07 11:57:56;;;;;;;1.00;0.32;;;25.40;47.30;;;;;;5058540;28;20037;-46
2022/07/07 12:00:30;;;;;;;2.42;0.28;;;25.40;47.30;;;;;;5047130;28;21578;-46
2022/07/07 12:02:58;;;;;;;1.27;0.60;;;25.40;47.30;;;;;;5039748;28;20046;-49
2022/07/07 12:05:26;;;;;;;0.70;0.30;;;25.40;47.30;;;;;;5019366;28;20143;-49
2022/07/07 12:07:55;;;;;;;0.52;0.28;;;25.40;47.30;;;;;;5064813;28;20064;-49
2022/07/07 12:10:27;;;;;;;1.58;0.40;;;25.40;47.30;;;;;;5046658;28;20037;-48
2022/07/07 12:13:03;;;;;;;0.65;0.30;;;25.40;47.30;;;;;;5049325;28;20061;-47
2022/07/07 12:15:44;;;;;;;0.57;0.22;;;25.40;47.30;;;;;;5056703;28;20033;-50
2022/07/07 12:18:11;;;;;;;1.27;0.50;;;25.40;47.30;;;;;;5029286;28;20048;-47
2022/07/07 12:20:39;;;;;;;1.75;0.88;;;25.40;47.30;;;;;;5036694;28;20112;-53
2022/07/07 12:23:16;;;;;;;0.38;0.30;;;25.40;47.20;;;;;;5019351;28;20044;-48
2022/07/07 12:25:42;;;;;;;0.38;0.30;;;25.50;47.20;;;;;;5037901;28;20036;-53
2022/07/07 12:28:09;;;;;;;0.65;0.52;;;25.40;47.20;;;;;;5043126;28;20028;-50
2022/07/07 12:30:54;;;;;;;1.20;0.40;;;25.40;47.20;;;;;;5055044;28;20038;-50
2022/07/07 12:33:31;;;;;;;1.30;0.30;;;25.40;47.20;;;;;;5057525;28;20361;-51
2022/07/07 12:36:06;;;;;;;0.60;0.30;;;25.50;47.20;;;;;;5066030;28;20364;-51
2022/07/07 12:38:59;;;;;;;0.98;0.40;;;25.50;47.20;;;;;;5066127;28;20100;-50
2022/07/07 12:41:26;;;;;;;0.80;0.30;;;25.50;47.20;;;;;;5050584;28;20087;-50
2022/07/07 12:43:53;;;;;;;1.23;0.57;;;25.50;47.20;;;;;;5054003;28;20452;-45
2022/07/07 12:46:19;;;;;;;1.10;0.43;;;25.50;47.30;;;;;;5055504;28;20028;-48
2022/07/07 12:48:50;;;;;;;0.88;0.30;;;25.50;47.20;;;;;;5073862;28;20371;-51
2022/07/07 12:51:17;;;;;;;1.45;0.40;;;25.50;47.20;;;;;;5060216;28;20033;-49
2022/07/07 12:53:43;;;;;;;1.55;0.50;;;25.40;47.10;;;;;;5070342;28;20034;-51
2022/07/07 12:56:12;;;;;;;0.75;0.35;;;25.40;47.00;;;;;;5073995;28;20151;-50
2022/07/07 12:58:46;;;;;;;1.02;0.43;;;25.50;47.10;;;;;;5036238;28;20045;-50